sensor_id;sensor_type;location;lat;lon;timestamp;temperature;humidity
1355;DHT22;671;48.972;9.276;2023-06-22T00:00:53;22.30;99.90
1355;DHT22;671;48.972;9.276;2023-06-22T00:03:22;22.20;99.90
1355;DHT22;671;48.972;9.276;2023-06-22T00:05:49;22.10;99.90
1355;DHT22;671;48.972;9.276;2023-06-22T00:08:16;22.10;99.90
1355;DHT22;671;48.972;9.276;2023-06-22T00:10:44;22.10;99.90
1355;DHT22;671;48.972;9.276;2023-06-22T00:13:11;22.00;99.90
1355;DHT22;671;48.972;9.276;2023-06-22T00:15:39;22.00;99.90
1355;DHT22;671;48.972;9.276;2023-06-22T00:18:06;22.00;99.90
1355;DHT22;671;48.972;9.276;2023-06-22T00:20:34;21.90;99.90
1355;DHT22;671;48.972;9.276;2023-06-22T00:23:04;21.90;99.90
1355;DHT22;671;48.972;9.276;2023-06-22T00:25:36;21.80;99.90
1355;DHT22;671;48.972;9.276;2023-06-22T00:28:04;21.80;99.90
1355;DHT22;671;48.972;9.276;2023-06-22T00:30:31;21.80;99.90
1355;DHT22;671;48.972;9.276;2023-06-22T00:32:58;21.80;99.90
1355;DHT22;671;48.972;9.276;2023-06-22T00:35:26;21.80;99.90
1355;DHT22;671;48.972;9.276;2023-06-22T00:38:00;21.70;99.90
1355;DHT22;671;48.972;9.276;2023-06-22T00:40:33;21.70;99.90
1355;DHT22;671;48.972;9.276;2023-06-22T00:43:00;21.60;99.90
1355;DHT22;671;48.972;9.276;2023-06-22T00:45:26;21.50;99.90
1355;DHT22;671;48.972;9.276;2023-06-22T00:47:56;21.50;99.90
1355;DHT22;671;48.972;9.276;2023-06-22T00:50:25;21.50;99.90
1355;DHT22;671;48.972;9.276;2023-06-22T00:52:54;21.40;99.90
1355;DHT22;671;48.972;9.276;2023-06-22T00:55:23;21.50;99.90
1355;DHT22;671;48.972;9.276;2023-06-22T00:57:50;21.40;99.90
1355;DHT22;671;48.972;9.276;2023-06-22T01:00:16;21.40;99.90
1355;DHT22;671;48.972;9.276;2023-06-22T01:02:46;21.40;99.90
1355;DHT22;671;48.972;9.276;2023-06-22T01:05:17;21.30;99.90
1355;DHT22;671;48.972;9.276;2023-06-22T01:13:29;21.40;99.90
1355;DHT22;671;48.972;9.276;2023-06-22T01:18:25;21.20;99.90
1355;DHT22;671;48.972;9.276;2023-06-22T01:20:56;21.10;99.90
1355;DHT22;671;48.972;9.276;2023-06-22T01:28:59;21.00;99.90
1355;DHT22;671;48.972;9.276;2023-06-22T01:31:27;21.00;99.90
1355;DHT22;671;48.972;9.276;2023-06-22T01:34:01;21.00;99.90
1355;DHT22;671;48.972;9.276;2023-06-22T01:36:28;20.90;99.90
1355;DHT22;671;48.972;9.276;2023-06-22T01:38:56;20.90;99.90
1355;DHT22;671;48.972;9.276;2023-06-22T01:41:25;20.80;99.90
1355;DHT22;671;48.972;9.276;2023-06-22T01:43:53;20.80;99.90
1355;DHT22;671;48.972;9.276;2023-06-22T01:46:21;20.70;99.90
1355;DHT22;671;48.972;9.276;2023-06-22T01:48:48;20.70;99.90
1355;DHT22;671;48.972;9.276;2023-06-22T01:51:15;20.60;99.90
1355;DHT22;671;48.972;9.276;2023-06-22T01:53:42;20.60;99.90
1355;DHT22;671;48.972;9.276;2023-06-22T01:56:09;20.60;99.90
1355;DHT22;671;48.972;9.276;2023-06-22T01:58:40;20.60;99.90
1355;DHT22;671;48.972;9.276;2023-06-22T02:01:13;20.60;99.90
1355;DHT22;671;48.972;9.276;2023-06-22T02:03:46;20.50;99.90
1355;DHT22;671;48.972;9.276;2023-06-22T02:06:17;20.50;99.90
1355;DHT22;671;48.972;9.276;2023-06-22T02:08:54;20.50;99.90
1355;DHT22;671;48.972;9.276;2023-06-22T02:11:21;20.50;99.90
1355;DHT22;671;48.972;9.276;2023-06-22T02:13:49;20.50;99.90
1355;DHT22;671;48.972;9.276;2023-06-22T02:16:17;20.50;99.90
1355;DHT22;671;48.972;9.276;2023-06-22T02:18:48;20.50;99.90
1355;DHT22;671;48.972;9.276;2023-06-22T02:21:20;20.50;99.90
1355;DHT22;671;48.972;9.276;2023-06-22T02:23:47;20.50;99.90
1355;DHT22;671;48.972;9.276;2023-06-22T02:26:16;20.50;99.90
1355;DHT22;671;48.972;9.276;2023-06-22T02:28:43;20.40;99.90
1355;DHT22;671;48.972;9.276;2023-06-22T02:31:10;20.50;99.90
1355;DHT22;671;48.972;9.276;2023-06-22T02:33:37;20.40;99.90
1355;DHT22;671;48.972;9.276;2023-06-22T02:36:04;20.40;99.90
1355;DHT22;671;48.972;9.276;2023-06-22T02:38:31;20.40;99.90
1355;DHT22;671;48.972;9.276;2023-06-22T02:41:03;20.40;99.90
1355;DHT22;671;48.972;9.276;2023-06-22T02:43:29;20.40;99.90
1355;DHT22;671;48.972;9.276;2023-06-22T02:45:56;20.40;99.90
1355;DHT22;671;48.972;9.276;2023-06-22T02:48:22;20.30;99.90
1355;DHT22;671;48.972;9.276;2023-06-22T02:50:49;20.30;99.90
1355;DHT22;671;48.972;9.276;2023-06-22T02:53:15;20.20;99.90
1355;DHT22;671;48.972;9.276;2023-06-22T02:55:42;20.20;99.90
1355;DHT22;671;48.972;9.276;2023-06-22T02:58:08;20.20;99.90
1355;DHT22;671;48.972;9.276;2023-06-22T03:00:35;20.20;99.90
1355;DHT22;671;48.972;9.276;2023-06-22T03:03:01;20.20;99.90
1355;DHT22;671;48.972;9.276;2023-06-22T03:05:28;20.20;99.90
1355;DHT22;671;48.972;9.276;2023-06-22T03:07:54;20.10;99.90
1355;DHT22;671;48.972;9.276;2023-06-22T03:10:21;20.10;99.90
1355;DHT22;671;48.972;9.276;2023-06-22T03:12:47;20.10;99.90
1355;DHT22;671;48.972;9.276;2023-06-22T03:15:14;20.10;99.90
1355;DHT22;671;48.972;9.276;2023-06-22T03:17:40;20.10;99.90
1355;DHT22;671;48.972;9.276;2023-06-22T03:20:09;20.10;99.90
1355;DHT22;671;48.972;9.276;2023-06-22T03:22:40;20.10;99.90
1355;DHT22;671;48.972;9.276;2023-06-22T03:25:08;20.10;99.90
1355;DHT22;671;48.972;9.276;2023-06-22T03:27:40;20.20;99.90
1355;DHT22;671;48.972;9.276;2023-06-22T03:30:08;20.10;99.90
1355;DHT22;671;48.972;9.276;2023-06-22T03:32:35;20.10;99.90
1355;DHT22;671;48.972;9.276;2023-06-22T03:35:02;20.10;99.90
1355;DHT22;671;48.972;9.276;2023-06-22T03:37:29;20.20;99.90
1355;DHT22;671;48.972;9.276;2023-06-22T03:39:55;20.20;99.90
1355;DHT22;671;48.972;9.276;2023-06-22T03:42:22;20.20;99.90
1355;DHT22;671;48.972;9.276;2023-06-22T03:44:48;20.20;99.90
1355;DHT22;671;48.972;9.276;2023-06-22T03:47:15;20.20;99.90
1355;DHT22;671;48.972;9.276;2023-06-22T03:49:41;20.20;99.90
1355;DHT22;671;48.972;9.276;2023-06-22T03:52:08;20.20;99.90
1355;DHT22;671;48.972;9.276;2023-06-22T03:54:34;20.20;99.90
1355;DHT22;671;48.972;9.276;2023-06-22T03:57:01;20.30;99.90
1355;DHT22;671;48.972;9.276;2023-06-22T03:59:27;20.30;99.90
1355;DHT22;671;48.972;9.276;2023-06-22T04:01:54;20.40;99.90
1355;DHT22;671;48.972;9.276;2023-06-22T04:04:20;20.40;99.90
1355;DHT22;671;48.972;9.276;2023-06-22T04:06:47;20.40;99.90
1355;DHT22;671;48.972;9.276;2023-06-22T04:09:13;20.50;99.90
1355;DHT22;671;48.972;9.276;2023-06-22T04:11:40;20.50;99.90
1355;DHT22;671;48.972;9.276;2023-06-22T04:14:06;20.50;99.90
1355;DHT22;671;48.972;9.276;2023-06-22T04:16:33;20.70;99.90
1355;DHT22;671;48.972;9.276;2023-06-22T04:18:59;20.80;99.90
1355;DHT22;671;48.972;9.276;2023-06-22T04:21:26;20.90;99.90
1355;DHT22;671;48.972;9.276;2023-06-22T04:23:52;21.00;99.90
1355;DHT22;671;48.972;9.276;2023-06-22T04:26:19;21.10;99.90
1355;DHT22;671;48.972;9.276;2023-06-22T04:28:47;21.20;99.90
1355;DHT22;671;48.972;9.276;2023-06-22T04:31:18;21.30;99.90
1355;DHT22;671;48.972;9.276;2023-06-22T04:33:45;21.40;99.90
1355;DHT22;671;48.972;9.276;2023-06-22T04:36:12;21.50;99.90
1355;DHT22;671;48.972;9.276;2023-06-22T04:38:41;21.60;99.90
1355;DHT22;671;48.972;9.276;2023-06-22T04:41:08;21.70;99.90
1355;DHT22;671;48.972;9.276;2023-06-22T04:43:40;21.80;99.90
1355;DHT22;671;48.972;9.276;2023-06-22T04:46:07;21.90;99.90
1355;DHT22;671;48.972;9.276;2023-06-22T04:48:33;22.00;99.90
1355;DHT22;671;48.972;9.276;2023-06-22T04:51:01;22.10;99.90
1355;DHT22;671;48.972;9.276;2023-06-22T04:53:31;22.10;99.90
1355;DHT22;671;48.972;9.276;2023-06-22T04:55:58;22.20;99.90
1355;DHT22;671;48.972;9.276;2023-06-22T04:58:24;22.30;99.90
1355;DHT22;671;48.972;9.276;2023-06-22T05:00:54;22.40;99.90
1355;DHT22;671;48.972;9.276;2023-06-22T05:03:25;22.60;99.90
1355;DHT22;671;48.972;9.276;2023-06-22T05:05:52;22.70;99.90
1355;DHT22;671;48.972;9.276;2023-06-22T05:08:20;22.80;99.90
1355;DHT22;671;48.972;9.276;2023-06-22T05:10:46;22.90;99.90
1355;DHT22;671;48.972;9.276;2023-06-22T05:13:13;23.00;99.90
1355;DHT22;671;48.972;9.276;2023-06-22T05:15:39;23.30;99.90
1355;DHT22;671;48.972;9.276;2023-06-22T05:18:06;24.30;99.90
1355;DHT22;671;48.972;9.276;2023-06-22T05:20:33;25.30;99.90
1355;DHT22;671;48.972;9.276;2023-06-22T05:23:02;25.90;99.90
1355;DHT22;671;48.972;9.276;2023-06-22T05:25:28;26.50;99.90
1355;DHT22;671;48.972;9.276;2023-06-22T05:27:56;26.90;99.90
1355;DHT22;671;48.972;9.276;2023-06-22T05:30:23;27.20;99.90
1355;DHT22;671;48.972;9.276;2023-06-22T05:32:49;27.60;99.90
1355;DHT22;671;48.972;9.276;2023-06-22T05:35:16;27.70;99.90
1355;DHT22;671;48.972;9.276;2023-06-22T05:37:42;27.80;99.90
1355;DHT22;671;48.972;9.276;2023-06-22T05:40:09;27.90;99.90
1355;DHT22;671;48.972;9.276;2023-06-22T05:42:36;27.60;99.90
1355;DHT22;671;48.972;9.276;2023-06-22T05:45:03;27.60;99.90
1355;DHT22;671;48.972;9.276;2023-06-22T05:47:29;27.30;99.90
1355;DHT22;671;48.972;9.276;2023-06-22T05:49:56;26.80;99.90
1355;DHT22;671;48.972;9.276;2023-06-22T05:52:22;26.40;99.90
1355;DHT22;671;48.972;9.276;2023-06-22T05:54:49;26.10;99.90
1355;DHT22;671;48.972;9.276;2023-06-22T05:57:15;26.00;99.90
1355;DHT22;671;48.972;9.276;2023-06-22T05:59:42;25.80;99.90
1355;DHT22;671;48.972;9.276;2023-06-22T06:02:08;25.70;99.90
1355;DHT22;671;48.972;9.276;2023-06-22T06:04:35;25.60;99.90
1355;DHT22;671;48.972;9.276;2023-06-22T06:07:02;25.40;99.90
1355;DHT22;671;48.972;9.276;2023-06-22T06:09:28;25.30;99.90
1355;DHT22;671;48.972;9.276;2023-06-22T06:11:55;25.20;99.90
1355;DHT22;671;48.972;9.276;2023-06-22T06:14:21;25.10;99.90
1355;DHT22;671;48.972;9.276;2023-06-22T06:16:49;25.10;99.90
1355;DHT22;671;48.972;9.276;2023-06-22T06:19:15;25.10;99.90
1355;DHT22;671;48.972;9.276;2023-06-22T06:21:42;25.10;99.90
1355;DHT22;671;48.972;9.276;2023-06-22T06:24:08;25.20;99.90
1355;DHT22;671;48.972;9.276;2023-06-22T06:26:35;25.20;99.90
1355;DHT22;671;48.972;9.276;2023-06-22T06:29:02;25.30;99.90
1355;DHT22;671;48.972;9.276;2023-06-22T06:31:31;25.30;99.90
1355;DHT22;671;48.972;9.276;2023-06-22T06:33:57;25.30;99.90
1355;DHT22;671;48.972;9.276;2023-06-22T06:36:24;25.40;99.90
1355;DHT22;671;48.972;9.276;2023-06-22T06:38:50;25.50;99.90
1355;DHT22;671;48.972;9.276;2023-06-22T06:41:17;25.50;99.90
1355;DHT22;671;48.972;9.276;2023-06-22T06:43:43;25.60;99.90
1355;DHT22;671;48.972;9.276;2023-06-22T06:46:10;25.70;99.90
1355;DHT22;671;48.972;9.276;2023-06-22T06:48:37;25.70;99.90
1355;DHT22;671;48.972;9.276;2023-06-22T06:51:03;25.80;99.90
1355;DHT22;671;48.972;9.276;2023-06-22T06:53:30;25.90;99.90
1355;DHT22;671;48.972;9.276;2023-06-22T06:55:56;26.00;99.90
1355;DHT22;671;48.972;9.276;2023-06-22T06:58:23;26.10;99.90
1355;DHT22;671;48.972;9.276;2023-06-22T07:00:49;26.30;99.90
1355;DHT22;671;48.972;9.276;2023-06-22T07:03:16;26.40;99.90
1355;DHT22;671;48.972;9.276;2023-06-22T07:05:43;26.40;99.90
1355;DHT22;671;48.972;9.276;2023-06-22T07:08:09;26.50;99.90
1355;DHT22;671;48.972;9.276;2023-06-22T07:10:36;26.50;99.90
1355;DHT22;671;48.972;9.276;2023-06-22T07:13:03;26.50;99.90
1355;DHT22;671;48.972;9.276;2023-06-22T07:15:29;26.60;99.90
1355;DHT22;671;48.972;9.276;2023-06-22T07:17:56;26.70;99.90
1355;DHT22;671;48.972;9.276;2023-06-22T07:20:22;26.80;99.90
1355;DHT22;671;48.972;9.276;2023-06-22T07:22:49;26.80;99.90
1355;DHT22;671;48.972;9.276;2023-06-22T07:25:16;26.90;99.90
1355;DHT22;671;48.972;9.276;2023-06-22T07:30:24;27.00;99.90
1355;DHT22;671;48.972;9.276;2023-06-22T07:32:50;27.00;99.90
1355;DHT22;671;48.972;9.276;2023-06-22T07:35:17;27.10;99.90
1355;DHT22;671;48.972;9.276;2023-06-22T07:37:43;27.20;99.90
1355;DHT22;671;48.972;9.276;2023-06-22T07:40:10;27.20;99.90
1355;DHT22;671;48.972;9.276;2023-06-22T07:42:37;27.30;99.90
1355;DHT22;671;48.972;9.276;2023-06-22T07:45:04;27.40;99.90
1355;DHT22;671;48.972;9.276;2023-06-22T07:47:31;27.50;99.90
1355;DHT22;671;48.972;9.276;2023-06-22T07:50:02;27.70;99.90
1355;DHT22;671;48.972;9.276;2023-06-22T07:52:29;28.00;99.90
1355;DHT22;671;48.972;9.276;2023-06-22T07:54:56;28.20;99.90
1355;DHT22;671;48.972;9.276;2023-06-22T07:57:22;28.40;99.90
1355;DHT22;671;48.972;9.276;2023-06-22T07:59:49;28.60;99.90
1355;DHT22;671;48.972;9.276;2023-06-22T08:02:15;28.50;99.90
1355;DHT22;671;48.972;9.276;2023-06-22T08:04:42;28.60;99.90
1355;DHT22;671;48.972;9.276;2023-06-22T08:07:08;28.60;99.90
1355;DHT22;671;48.972;9.276;2023-06-22T08:09:35;28.60;99.90
1355;DHT22;671;48.972;9.276;2023-06-22T08:12:02;28.60;99.90
1355;DHT22;671;48.972;9.276;2023-06-22T08:14:29;28.60;99.90
1355;DHT22;671;48.972;9.276;2023-06-22T08:16:56;28.60;99.90
1355;DHT22;671;48.972;9.276;2023-06-22T08:19:22;28.60;99.90
1355;DHT22;671;48.972;9.276;2023-06-22T08:21:49;28.70;99.90
1355;DHT22;671;48.972;9.276;2023-06-22T08:24:16;28.70;99.90
1355;DHT22;671;48.972;9.276;2023-06-22T08:26:42;28.80;99.90
1355;DHT22;671;48.972;9.276;2023-06-22T08:29:09;28.90;99.90
1355;DHT22;671;48.972;9.276;2023-06-22T08:31:35;28.90;99.90
1355;DHT22;671;48.972;9.276;2023-06-22T08:34:02;29.10;99.90
1355;DHT22;671;48.972;9.276;2023-06-22T08:36:28;29.20;99.90
1355;DHT22;671;48.972;9.276;2023-06-22T08:38:56;29.60;99.90
1355;DHT22;671;48.972;9.276;2023-06-22T08:41:29;29.90;99.90
1355;DHT22;671;48.972;9.276;2023-06-22T08:43:55;30.10;99.90
1355;DHT22;671;48.972;9.276;2023-06-22T08:46:22;30.20;99.90
1355;DHT22;671;48.972;9.276;2023-06-22T08:48:56;30.30;99.90
1355;DHT22;671;48.972;9.276;2023-06-22T08:51:24;30.40;99.90
1355;DHT22;671;48.972;9.276;2023-06-22T08:53:50;30.50;99.90
1355;DHT22;671;48.972;9.276;2023-06-22T08:56:17;30.60;99.90
1355;DHT22;671;48.972;9.276;2023-06-22T08:58:44;30.60;99.90
1355;DHT22;671;48.972;9.276;2023-06-22T09:01:10;30.50;99.90
1355;DHT22;671;48.972;9.276;2023-06-22T09:03:37;30.50;99.90
1355;DHT22;671;48.972;9.276;2023-06-22T09:06:04;30.50;99.90
1355;DHT22;671;48.972;9.276;2023-06-22T09:08:30;30.60;99.90
1355;DHT22;671;48.972;9.276;2023-06-22T09:10:56;30.60;99.90
1355;DHT22;671;48.972;9.276;2023-06-22T09:13:23;30.60;99.90
1355;DHT22;671;48.972;9.276;2023-06-22T09:15:49;30.80;99.90
1355;DHT22;671;48.972;9.276;2023-06-22T09:18:16;31.10;99.90
1355;DHT22;671;48.972;9.276;2023-06-22T09:20:43;31.30;99.90
1355;DHT22;671;48.972;9.276;2023-06-22T09:23:09;31.40;99.90
1355;DHT22;671;48.972;9.276;2023-06-22T09:25:36;31.50;99.90
1355;DHT22;671;48.972;9.276;2023-06-22T09:28:03;31.50;99.90
1355;DHT22;671;48.972;9.276;2023-06-22T09:30:29;31.50;99.90
1355;DHT22;671;48.972;9.276;2023-06-22T09:32:56;31.50;99.90
1355;DHT22;671;48.972;9.276;2023-06-22T09:35:22;31.40;99.90
1355;DHT22;671;48.972;9.276;2023-06-22T09:37:49;31.30;99.90
1355;DHT22;671;48.972;9.276;2023-06-22T09:40:15;31.10;99.90
1355;DHT22;671;48.972;9.276;2023-06-22T09:42:43;31.20;99.90
1355;DHT22;671;48.972;9.276;2023-06-22T09:45:10;31.30;99.90
1355;DHT22;671;48.972;9.276;2023-06-22T09:47:36;31.40;99.90
1355;DHT22;671;48.972;9.276;2023-06-22T09:50:03;31.60;99.90
1355;DHT22;671;48.972;9.276;2023-06-22T09:52:30;31.80;99.90
1355;DHT22;671;48.972;9.276;2023-06-22T09:54:57;32.00;99.90
1355;DHT22;671;48.972;9.276;2023-06-22T09:57:23;31.90;99.90
1355;DHT22;671;48.972;9.276;2023-06-22T09:59:50;31.80;99.90
1355;DHT22;671;48.972;9.276;2023-06-22T10:02:16;31.80;99.90
1355;DHT22;671;48.972;9.276;2023-06-22T10:04:43;31.90;99.90
1355;DHT22;671;48.972;9.276;2023-06-22T10:07:10;31.90;99.90
1355;DHT22;671;48.972;9.276;2023-06-22T10:09:36;32.00;99.90
1355;DHT22;671;48.972;9.276;2023-06-22T10:12:03;32.00;99.90
1355;DHT22;671;48.972;9.276;2023-06-22T10:14:29;32.20;99.90
1355;DHT22;671;48.972;9.276;2023-06-22T10:16:56;32.20;99.90
1355;DHT22;671;48.972;9.276;2023-06-22T10:19:22;32.40;99.90
1355;DHT22;671;48.972;9.276;2023-06-22T10:21:49;32.40;99.90
1355;DHT22;671;48.972;9.276;2023-06-22T10:24:15;32.40;99.90
1355;DHT22;671;48.972;9.276;2023-06-22T10:26:42;32.40;99.90
1355;DHT22;671;48.972;9.276;2023-06-22T10:29:08;32.50;99.90
1355;DHT22;671;48.972;9.276;2023-06-22T10:31:35;32.60;99.90
1355;DHT22;671;48.972;9.276;2023-06-22T10:34:01;32.60;99.90
1355;DHT22;671;48.972;9.276;2023-06-22T10:36:28;32.70;99.90
1355;DHT22;671;48.972;9.276;2023-06-22T10:38:54;32.90;99.90
1355;DHT22;671;48.972;9.276;2023-06-22T10:41:21;33.20;99.90
1355;DHT22;671;48.972;9.276;2023-06-22T10:43:48;33.50;99.90
1355;DHT22;671;48.972;9.276;2023-06-22T10:46:14;33.50;99.80
1355;DHT22;671;48.972;9.276;2023-06-22T10:48:41;33.60;99.00
1355;DHT22;671;48.972;9.276;2023-06-22T10:51:07;33.60;98.90
1355;DHT22;671;48.972;9.276;2023-06-22T10:53:34;33.70;99.40
1355;DHT22;671;48.972;9.276;2023-06-22T10:56:00;33.80;99.90
1355;DHT22;671;48.972;9.276;2023-06-22T10:58:27;33.90;99.00
1355;DHT22;671;48.972;9.276;2023-06-22T11:00:53;34.10;98.30
1355;DHT22;671;48.972;9.276;2023-06-22T11:03:20;34.10;98.10
1355;DHT22;671;48.972;9.276;2023-06-22T11:05:46;34.20;97.20
1355;DHT22;671;48.972;9.276;2023-06-22T11:08:14;34.20;98.10
1355;DHT22;671;48.972;9.276;2023-06-22T11:10:41;34.20;97.30
1355;DHT22;671;48.972;9.276;2023-06-22T11:13:07;34.20;98.10
1355;DHT22;671;48.972;9.276;2023-06-22T11:15:36;34.30;98.10
1355;DHT22;671;48.972;9.276;2023-06-22T11:18:03;34.30;96.50
1355;DHT22;671;48.972;9.276;2023-06-22T11:20:31;34.40;97.20
1355;DHT22;671;48.972;9.276;2023-06-22T11:23:00;34.40;96.70
1355;DHT22;671;48.972;9.276;2023-06-22T11:25:27;34.60;96.90
1355;DHT22;671;48.972;9.276;2023-06-22T11:27:54;34.60;96.90
1355;DHT22;671;48.972;9.276;2023-06-22T11:30:21;34.50;95.70
1355;DHT22;671;48.972;9.276;2023-06-22T11:32:47;34.50;95.90
1355;DHT22;671;48.972;9.276;2023-06-22T11:35:14;34.50;96.50
1355;DHT22;671;48.972;9.276;2023-06-22T11:37:40;34.50;95.80
1355;DHT22;671;48.972;9.276;2023-06-22T11:40:09;34.50;95.50
1355;DHT22;671;48.972;9.276;2023-06-22T11:42:35;34.40;96.50
1355;DHT22;671;48.972;9.276;2023-06-22T11:45:04;34.30;95.90
1355;DHT22;671;48.972;9.276;2023-06-22T11:47:31;34.20;97.10
1355;DHT22;671;48.972;9.276;2023-06-22T11:49:57;34.20;96.90
1355;DHT22;671;48.972;9.276;2023-06-22T11:52:24;34.10;96.10
1355;DHT22;671;48.972;9.276;2023-06-22T11:54:50;34.00;96.40
1355;DHT22;671;48.972;9.276;2023-06-22T11:57:17;34.00;95.80
1355;DHT22;671;48.972;9.276;2023-06-22T11:59:43;34.10;95.90
1355;DHT22;671;48.972;9.276;2023-06-22T12:02:10;34.20;97.50
1355;DHT22;671;48.972;9.276;2023-06-22T12:04:36;34.30;97.20
1355;DHT22;671;48.972;9.276;2023-06-22T12:07:04;34.30;96.80
1355;DHT22;671;48.972;9.276;2023-06-22T12:09:30;34.30;97.00
1355;DHT22;671;48.972;9.276;2023-06-22T12:11:57;34.30;96.80
1355;DHT22;671;48.972;9.276;2023-06-22T12:14:23;34.20;97.00
1355;DHT22;671;48.972;9.276;2023-06-22T12:16:50;34.10;97.00
1355;DHT22;671;48.972;9.276;2023-06-22T12:19:16;34.00;96.20
1355;DHT22;671;48.972;9.276;2023-06-22T12:21:43;34.00;96.50
1355;DHT22;671;48.972;9.276;2023-06-22T12:24:11;33.90;95.20
1355;DHT22;671;48.972;9.276;2023-06-22T12:26:38;33.80;96.30
1355;DHT22;671;48.972;9.276;2023-06-22T12:29:04;33.70;97.00
1355;DHT22;671;48.972;9.276;2023-06-22T12:31:31;33.50;97.00
1355;DHT22;671;48.972;9.276;2023-06-22T12:33:57;33.50;97.20
1355;DHT22;671;48.972;9.276;2023-06-22T12:36:24;33.50;97.90
1355;DHT22;671;48.972;9.276;2023-06-22T12:38:50;33.40;98.20
1355;DHT22;671;48.972;9.276;2023-06-22T12:41:18;33.50;98.80
1355;DHT22;671;48.972;9.276;2023-06-22T12:43:44;33.50;97.60
1355;DHT22;671;48.972;9.276;2023-06-22T12:46:11;33.40;98.30
1355;DHT22;671;48.972;9.276;2023-06-22T12:48:37;33.30;98.00
1355;DHT22;671;48.972;9.276;2023-06-22T12:51:08;33.20;98.50
1355;DHT22;671;48.972;9.276;2023-06-22T12:53:35;33.00;98.40
1355;DHT22;671;48.972;9.276;2023-06-22T12:56:02;33.00;98.60
1355;DHT22;671;48.972;9.276;2023-06-22T12:58:28;32.80;99.20
1355;DHT22;671;48.972;9.276;2023-06-22T13:00:55;32.80;99.90
1355;DHT22;671;48.972;9.276;2023-06-22T13:03:21;32.70;99.90
1355;DHT22;671;48.972;9.276;2023-06-22T13:05:50;32.70;99.90
1355;DHT22;671;48.972;9.276;2023-06-22T13:08:16;32.70;99.90
1355;DHT22;671;48.972;9.276;2023-06-22T13:10:43;32.60;99.70
1355;DHT22;671;48.972;9.276;2023-06-22T13:13:09;32.60;99.40
1355;DHT22;671;48.972;9.276;2023-06-22T13:15:36;32.60;98.70
1355;DHT22;671;48.972;9.276;2023-06-22T13:18:03;32.60;99.90
1355;DHT22;671;48.972;9.276;2023-06-22T13:20:29;32.50;99.50
1355;DHT22;671;48.972;9.276;2023-06-22T13:22:56;32.50;99.80
1355;DHT22;671;48.972;9.276;2023-06-22T13:25:24;32.50;99.40
1355;DHT22;671;48.972;9.276;2023-06-22T13:27:52;32.50;98.70
1355;DHT22;671;48.972;9.276;2023-06-22T13:30:19;32.50;98.70
1355;DHT22;671;48.972;9.276;2023-06-22T13:32:45;32.50;99.90
1355;DHT22;671;48.972;9.276;2023-06-22T13:35:12;32.50;99.60
1355;DHT22;671;48.972;9.276;2023-06-22T13:37:38;32.40;99.90
1355;DHT22;671;48.972;9.276;2023-06-22T13:40:06;32.50;99.70
1355;DHT22;671;48.972;9.276;2023-06-22T13:42:33;32.50;99.50
1355;DHT22;671;48.972;9.276;2023-06-22T13:45:00;32.60;99.90
1355;DHT22;671;48.972;9.276;2023-06-22T13:47:26;32.60;99.90
1355;DHT22;671;48.972;9.276;2023-06-22T13:49:53;32.60;99.90
1355;DHT22;671;48.972;9.276;2023-06-22T13:52:19;32.70;99.90
1355;DHT22;671;48.972;9.276;2023-06-22T13:54:46;32.80;99.90
1355;DHT22;671;48.972;9.276;2023-06-22T13:57:12;32.90;99.90
1355;DHT22;671;48.972;9.276;2023-06-22T13:59:39;33.00;99.90
1355;DHT22;671;48.972;9.276;2023-06-22T14:02:06;33.20;99.90
1355;DHT22;671;48.972;9.276;2023-06-22T14:04:32;33.30;99.90
1355;DHT22;671;48.972;9.276;2023-06-22T14:06:59;33.40;99.90
1355;DHT22;671;48.972;9.276;2023-06-22T14:09:25;33.40;99.90
1355;DHT22;671;48.972;9.276;2023-06-22T14:11:54;33.30;99.20
1355;DHT22;671;48.972;9.276;2023-06-22T14:14:21;33.20;99.60
1355;DHT22;671;48.972;9.276;2023-06-22T14:16:47;33.20;99.90
1355;DHT22;671;48.972;9.276;2023-06-22T14:19:18;33.20;98.70
1355;DHT22;671;48.972;9.276;2023-06-22T14:21:45;33.20;98.90
1355;DHT22;671;48.972;9.276;2023-06-22T14:24:11;33.20;99.10
1355;DHT22;671;48.972;9.276;2023-06-22T14:26:38;33.30;99.90
1355;DHT22;671;48.972;9.276;2023-06-22T14:29:04;33.30;99.90
1355;DHT22;671;48.972;9.276;2023-06-22T14:31:31;33.30;98.80
1355;DHT22;671;48.972;9.276;2023-06-22T14:33:58;33.30;99.20
1355;DHT22;671;48.972;9.276;2023-06-22T14:36:24;33.40;99.70
1355;DHT22;671;48.972;9.276;2023-06-22T14:38:51;33.60;99.90
1355;DHT22;671;48.972;9.276;2023-06-22T14:41:17;33.80;99.90
1355;DHT22;671;48.972;9.276;2023-06-22T14:43:47;34.00;99.30
1355;DHT22;671;48.972;9.276;2023-06-22T14:46:15;34.10;98.80
1355;DHT22;671;48.972;9.276;2023-06-22T14:48:41;34.10;98.90
1355;DHT22;671;48.972;9.276;2023-06-22T14:51:09;34.10;98.50
1355;DHT22;671;48.972;9.276;2023-06-22T14:53:36;34.20;99.10
1355;DHT22;671;48.972;9.276;2023-06-22T14:56:03;34.40;99.00
1355;DHT22;671;48.972;9.276;2023-06-22T14:58:33;34.50;98.50
1355;DHT22;671;48.972;9.276;2023-06-22T15:01:01;34.60;98.70
1355;DHT22;671;48.972;9.276;2023-06-22T15:03:30;34.80;96.70
1355;DHT22;671;48.972;9.276;2023-06-22T15:05:58;34.90;96.50
1355;DHT22;671;48.972;9.276;2023-06-22T15:08:25;34.90;96.40
1355;DHT22;671;48.972;9.276;2023-06-22T15:10:52;34.90;95.90
1355;DHT22;671;48.972;9.276;2023-06-22T15:13:19;34.80;95.50
1355;DHT22;671;48.972;9.276;2023-06-22T15:15:47;34.70;94.10
1355;DHT22;671;48.972;9.276;2023-06-22T15:18:14;34.70;93.10
1355;DHT22;671;48.972;9.276;2023-06-22T15:20:41;34.70;92.40
1355;DHT22;671;48.972;9.276;2023-06-22T15:23:13;34.60;90.60
1355;DHT22;671;48.972;9.276;2023-06-22T15:25:40;34.70;89.90
1355;DHT22;671;48.972;9.276;2023-06-22T15:28:06;34.70;83.90
1355;DHT22;671;48.972;9.276;2023-06-22T15:30:33;34.70;82.40
1355;DHT22;671;48.972;9.276;2023-06-22T15:33:00;34.80;80.90
1355;DHT22;671;48.972;9.276;2023-06-22T15:35:27;34.80;78.70
1355;DHT22;671;48.972;9.276;2023-06-22T15:37:54;34.80;80.20
1355;DHT22;671;48.972;9.276;2023-06-22T15:40:20;34.80;79.80
1355;DHT22;671;48.972;9.276;2023-06-22T15:42:49;34.80;80.20
1355;DHT22;671;48.972;9.276;2023-06-22T15:45:16;34.70;78.80
1355;DHT22;671;48.972;9.276;2023-06-22T15:47:43;34.70;82.80
1355;DHT22;671;48.972;9.276;2023-06-22T15:50:09;34.80;82.50
1355;DHT22;671;48.972;9.276;2023-06-22T15:52:36;34.70;82.80
1355;DHT22;671;48.972;9.276;2023-06-22T15:55:03;34.80;81.30
1355;DHT22;671;48.972;9.276;2023-06-22T15:57:30;34.80;83.00
1355;DHT22;671;48.972;9.276;2023-06-22T15:59:57;34.70;79.80
1355;DHT22;671;48.972;9.276;2023-06-22T16:02:23;34.50;81.50
1355;DHT22;671;48.972;9.276;2023-06-22T16:04:50;34.30;79.70
1355;DHT22;671;48.972;9.276;2023-06-22T16:07:16;34.20;81.30
1355;DHT22;671;48.972;9.276;2023-06-22T16:09:43;34.10;79.40
1355;DHT22;671;48.972;9.276;2023-06-22T16:12:09;34.10;81.40
1355;DHT22;671;48.972;9.276;2023-06-22T16:14:36;34.10;79.40
1355;DHT22;671;48.972;9.276;2023-06-22T16:17:04;34.00;78.40
1355;DHT22;671;48.972;9.276;2023-06-22T16:19:30;34.00;78.40
1355;DHT22;671;48.972;9.276;2023-06-22T16:21:57;33.80;77.80
1355;DHT22;671;48.972;9.276;2023-06-22T16:24:23;33.70;78.10
1355;DHT22;671;48.972;9.276;2023-06-22T16:26:50;33.70;77.70
1355;DHT22;671;48.972;9.276;2023-06-22T16:29:17;33.60;77.40
1355;DHT22;671;48.972;9.276;2023-06-22T16:31:43;33.50;77.90